Date,TemperatureHighF,TemperatureAvgF,TemperatureLowF,DewpointHighF,DewpointAvgF,DewpointLowF,HumidityHigh,HumidityAvg,HumidityLow,PressureMaxIn,PressureMinIn,WindSpeedMaxMPH,WindSpeedAvgMPH,GustSpeedMaxMPH,PrecipitationSumIn
2013-1-1,11,8,6,9,6,3,92,89,87,30.09,30.08,0,0,0,0.00
2013-1-2,23,15,10,17,12,7,92,85,78,30.16,30.07,8,1,13,0.00
2013-1-5,34,30,28,30,26,24,94,83,73,30.24,30.01,7,1,0,0.01
2013-1-6,35,33,31,32,30,26,95,89,79,30.25,29.89,9,2,13,0.00
2013-1-7,36,30,27,26,25,22,85,79,68,30.35,30.13,15,2,19,0.01
2013-1-8,36,28,20,28,24,18,94,84,72,30.23,30.14,8,0,0,0.01
2013-1-9,46,34,23,28,26,21,95,72,46,30.41,30.09,30,4,30,0.02
2013-1-10,44,31,20,33,26,18,95,83,57,30.57,30.17,7,0,0,0.08
2013-1-11,55,42,34,51,41,33,98,94,82,30.17,29.74,10,1,13,0.88
2013-1-12,60,49,43,51,46,42,98,91,69,29.91,29.79,9,1,12,0.01
2013-1-13,45,37,28,44,36,25,96,95,88,30.01,29.69,17,1,19,0.71
2013-1-14,28,23,16,25,18,14,92,83,73,30.43,30.01,16,3,23,0.00
2013-1-15,30,21,12,21,16,10,94,82,59,30.45,30.15,4,0,0,0.01
2013-1-16,38,24,18,23,18,15,94,81,41,30.15,29.79,15,2,16,0.00
2013-1-17,34,26,17,23,17,8,84,69,59,30.29,30.10,15,4,18,0.00
2013-1-18,34,23,11,24,16,8,93,74,54,30.42,29.96,16,2,20,0.00
2013-1-19,46,40,33,36,31,24,74,67,60,29.96,29.52,17,4,24,0.00
2013-1-20,43,21,14,35,10,5,83,63,45,30.16,29.51,31,7,33,0.00
2013-1-21,16,12,3,12,5,-5,88,73,62,30.14,29.95,15,3,18,0.00
2013-1-22,9,3,-3,1,-4,-10,84,70,56,30.30,30.11,14,3,18,0.00
2013-1-23,17,9,-2,11,4,-4,88,79,66,30.31,30.09,8,1,13,0.00
2013-1-24,19,11,6,10,4,-1,88,74,46,30.59,30.13,8,1,0,0.00
2013-1-25,21,16,11,16,12,5,91,83,75,30.52,30.02,7,0,0,0.00
2013-1-26,27,20,10,17,14,7,92,80,55,30.45,30.05,10,1,12,0.03
2013-1-27,29,18,5,28,14,3,94,83,63,30.48,30.14,9,1,13,0.00
2013-1-28,45,36,29,44,35,27,98,96,93,30.16,29.83,10,2,16,0.59
2013-1-29,56,44,32,54,43,30,99,97,93,30.01,29.43,15,1,18,0.75
2013-1-30,60,49,32,58,47,28,98,95,85,29.44,29.07,21,3,24,0.44
2013-1-31,32,21,15,28,15,10,90,78,63,29.86,29.17,25,7,31,0.00
2013-2-1,18,14,9,11,8,2,87,76,63,30.26,29.86,14,4,19,0.00
2013-2-2,22,14,1,18,10,-2,89,84,77,30.22,29.95,14,1,14,0.00
2013-2-3,20,10,-3,16,6,-6,90,82,67,30.02,29.86,13,2,19,0.00
2013-2-4,23,18,15,18,14,7,88,83,69,30.03,29.88,5,0,0,0.01
2013-2-6,26,23,21,18,17,15,82,77,70,30.30,30.24,1,0,0,0.02
2013-2-7,38,30,24,29,23,18,92,77,66,30.28,29.87,8,1,12,0.01
2013-2-8,28,27,24,27,24,20,95,91,84,30.12,29.78,14,2,15,0.00
2013-2-9,33,21,0,20,14,-3,94,75,50,30.45,30.29,7,1,0,0.27
2013-2-10,38,28,14,36,23,12,95,84,63,30.30,29.68,8,1,0,0.26
2013-2-11,44,37,31,42,32,26,96,82,70,29.83,29.52,23,6,25,0.08
2013-2-12,31,30,27,27,24,21,83,78,73,30.02,29.82,17,4,21,0.00
2013-2-13,39,30,26,26,24,21,93,78,56,29.91,29.72,9,1,0,0.00
2013-2-14,36,28,24,33,27,23,96,94,89,29.76,29.69,5,0,0,0.01
2013-2-15,28,25,22,22,16,13,83,67,56,30.10,29.95,14,4,17,0.00
2013-2-16,24,18,11,20,14,9,92,83,69,30.09,29.97,10,1,15,0.00
2013-2-17,22,13,4,13,7,1,93,77,53,30.22,30.05,15,1,15,0.01
2013-2-18,44,28,7,35,21,4,90,74,59,30.22,29.59,11,2,14,0.00
2013-2-19,43,28,17,40,24,11,94,83,70,29.89,29.38,21,6,23,0.20
2013-2-20,21,19,15,16,12,8,86,75,66,30.24,29.89,18,5,22,0.00
2013-2-21,26,21,18,18,14,12,88,77,62,30.39,30.23,9,1,0,0.00
2013-2-22,33,26,21,32,24,18,97,92,85,30.27,29.88,11,1,0,0.01
2013-2-23,32,29,24,31,24,20,94,79,66,29.90,29.84,10,2,12,0.00
2013-2-24,35,26,14,27,21,12,93,84,68,30.14,29.88,13,1,13,0.01
2013-2-25,42,25,8,27,18,5,95,77,50,30.24,30.10,6,0,0,0.05
2013-2-26,36,31,24,32,27,21,97,85,70,30.13,29.50,16,1,16,0.14
2013-2-27,35,33,33,34,32,32,97,96,93,29.55,29.44,7,0,0,0.31
2013-2-28,36,33,32,32,32,31,97,95,85,29.72,29.52,12,1,13,0.22
2013-3-1,25,24,24,21,20,20,87,84,82,30.10,30.04,7,1,13,0.00
2013-3-2,26,24,22,21,20,18,88,83,77,30.08,30.04,9,1,0,0.00
2013-3-3,28,21,15,18,16,12,90,79,64,30.05,29.99,12,2,14,0.01
2013-3-4,35,22,9,18,14,7,93,74,44,30.15,30.05,7,1,0,0.06
2013-3-5,38,26,14,26,20,12,95,79,60,30.14,29.84,11,1,12,0.03
2013-3-6,41,33,25,30,27,22,89,81,64,30.20,29.85,5,1,0,0.00
2013-3-7,34,31,21,31,26,18,93,83,66,30.38,30.18,7,1,0,0.00
2013-3-8,45,34,21,28,26,18,93,72,50,30.49,30.38,5,0,0,0.00
2013-3-9,44,33,22,32,27,20,96,80,56,30.41,30.03,8,1,0,0.00
2013-3-10,59,48,33,47,38,30,90,69,53,30.03,29.76,9,1,18,0.00
2013-3-11,54,48,37,48,44,33,96,85,63,29.79,29.41,14,2,19,0.38
2013-3-12,37,34,29,33,29,25,89,84,72,29.89,29.63,14,4,20,0.01
2013-3-13,27,27,26,16,16,14,63,62,60,30.17,30.15,16,6,17,0.00
2013-3-14,39,29,20,22,18,14,83,65,43,30.25,30.07,12,2,14,0.00
2013-3-15,37,34,29,33,28,18,96,82,56,30.06,29.83,12,2,16,0.04
2013-3-16,33,28,23,32,25,20,96,88,78,30.02,29.76,7,0,0,0.11
2013-3-17,32,25,19,24,17,12,90,73,50,30.26,30.02,9,1,12,0.07
2013-3-18,34,28,20,33,25,14,96,88,79,30.19,29.55,10,2,16,0.07
2013-3-19,34,26,23,31,21,16,90,80,71,29.91,29.59,19,6,22,0.00
2013-3-20,28,23,17,19,15,12,80,71,58,29.93,29.87,16,4,19,0.00
2013-3-21,30,23,15,26,18,11,89,82,71,29.92,29.84,15,4,19,0.01
2013-3-22,38,29,24,25,21,18,81,71,55,30.01,29.91,12,3,19,0.00
2013-3-23,37,29,20,26,23,18,94,79,62,30.10,30.00,9,0,0,0.00
2013-3-24,37,28,20,28,23,18,95,82,58,30.06,29.65,8,1,0,0.00
2013-3-25,40,34,30,29,27,24,81,75,64,29.89,29.57,9,2,12,0.00
2013-3-26,42,35,32,32,30,27,88,80,63,30.09,29.89,9,1,13,0.01
2013-3-27,46,37,29,30,27,25,86,67,48,30.17,30.09,15,4,18,0.02
2013-3-28,50,39,29,31,26,23,82,62,38,30.24,30.17,11,2,15,0.00
2013-3-29,52,38,25,27,24,21,88,59,32,30.26,30.17,8,1,0,0.00
2013-3-30,54,36,22,28,23,18,95,68,26,30.20,30.04,12,1,13,0.00
2013-4-3,41,35,27,22,17,13,76,51,33,30.39,30.35,7,1,0,0.00
2013-4-4,55,40,25,23,19,16,83,48,24,30.35,29.93,14,2,17,0.00
2013-4-5,46,40,30,31,24,18,82,55,33,30.19,29.91,15,1,17,0.00
2013-4-6,49,38,27,28,22,17,84,55,35,30.23,29.77,17,2,17,0.00
2013-4-7,57,52,46,46,37,27,76,58,42,29.77,29.57,21,5,24,0.00
2013-4-8,64,51,46,55,47,43,96,85,61,29.94,29.67,23,4,26,0.16
2013-4-9,50,44,40,45,42,38,97,92,77,30.06,29.86,14,1,14,0.64
2013-4-10,44,41,37,43,40,36,97,96,93,30.02,29.81,12,1,20,0.29
2013-4-11,38,36,35,37,35,34,97,95,93,29.96,29.61,11,1,15,0.74
2013-4-12,41,38,34,39,35,33,97,91,77,29.74,29.50,12,2,16,0.30
2013-4-13,41,38,36,38,31,28,93,78,63,29.96,29.73,18,5,20,0.01
2013-4-14,48,38,30,39,32,27,91,78,63,30.10,29.92,9,1,0,0.01
2013-4-15,68,54,36,55,46,34,94,76,58,29.94,29.85,15,1,16,0.03
2013-4-16,61,53,44,55,44,34,95,74,42,30.19,29.82,13,2,17,0.01
2013-4-17,58,46,38,44,36,31,95,70,45,30.31,30.00,10,1,0,0.71
2013-4-18,70,50,43,63,48,42,96,92,80,30.00,29.63,11,2,15,0.04
2013-4-19,41,39,34,36,31,30,88,74,66,29.71,29.39,20,8,25,0.38
2013-4-20,37,33,27,31,23,16,89,67,53,30.43,29.70,21,5,21,0.01
2013-4-21,48,36,22,30,25,21,96,69,42,30.62,30.43,8,1,0,0.00
2013-4-22,61,46,29,38,30,23,96,59,26,30.46,30.17,7,1,0,0.00
2013-4-23,69,54,37,53,42,34,96,68,42,30.17,29.76,13,2,18,0.29
2013-4-24,54,40,34,53,37,28,97,90,70,30.10,29.71,11,2,15,0.52
2013-4-25,50,40,31,40,32,28,92,74,47,30.32,30.08,18,3,18,0.09
2013-4-26,59,44,28,39,33,27,97,68,39,30.44,30.31,13,1,16,0.00
2013-4-27,68,53,35,43,37,30,97,61,25,30.34,30.08,11,1,0,0.00
2013-4-28,58,52,46,52,46,35,97,83,62,30.07,29.80,8,0,0,0.24
2013-4-29,69,59,52,56,53,52,98,83,57,29.90,29.80,7,1,0,0.01
2013-4-30,71,61,53,58,55,51,95,81,60,30.03,29.87,11,1,18,0.28
2013-5-1,80,65,49,60,54,48,98,71,42,30.19,30.02,8,1,0,0.00
2013-5-2,78,65,51,57,51,47,91,63,39,30.20,30.09,8,1,0,0.00
2013-5-3,77,66,54,57,46,34,68,52,23,30.09,30.01,9,1,12,0.00
2013-5-4,69,61,52,49,44,37,82,56,32,30.08,30.02,11,1,12,0.00
2013-5-5,72,60,49,46,42,29,85,56,23,30.07,29.99,10,1,12,0.00
2013-5-6,74,68,52,52,48,43,81,51,38,30.02,29.94,8,1,0,0.00
2013-5-7,76,62,46,55,50,42,89,67,40,30.03,29.95,9,1,12,0.00
2013-5-8,80,65,50,55,51,46,95,65,31,29.99,29.88,8,0,0,0.00
2013-5-9,79,66,48,57,51,46,98,64,34,29.92,29.84,8,1,0,0.00
2013-5-10,65,55,41,62,51,39,97,88,57,29.86,29.69,9,1,0,0.24
2013-5-11,61,46,38,48,41,33,96,84,57,29.86,29.69,15,2,19,0.03
2013-5-12,47,40,32,34,30,25,85,69,52,30.07,29.83,18,5,22,0.00
2013-5-13,53,40,27,34,27,24,88,62,33,30.16,30.07,12,2,14,0.00
2013-5-14,74,55,40,53,41,32,86,61,42,30.09,29.70,9,1,17,0.00
2013-5-15,79,68,51,60,51,46,97,60,32,29.74,29.54,19,3,19,0.00
2013-5-16,79,64,46,53,47,40,97,58,29,29.99,29.73,11,1,12,0.00
2013-5-17,72,58,44,50,44,40,86,61,39,30.11,29.99,7,0,0,0.00
2013-5-18,79,65,54,52,47,44,76,54,32,30.11,29.99,10,0,0,0.00
2013-5-19,85,69,51,66,57,46,93,68,46,30.01,29.83,10,0,0,0.00
2013-5-20,88,72,60,73,64,59,97,78,44,29.88,29.70,12,1,17,0.00
2013-5-21,82,72,64,68,64,61,96,79,50,29.77,29.66,10,1,12,0.00
2013-5-22,79,68,62,66,63,60,94,84,55,29.69,29.56,14,1,16,0.05
2013-5-23,63,52,42,60,50,39,97,93,89,30.11,29.62,7,0,0,0.27
2013-5-24,55,45,36,40,37,33,95,75,49,30.34,30.11,9,1,12,0.01
2013-5-25,64,49,34,45,38,33,97,70,40,30.38,30.26,7,0,0,0.00
2013-5-26,68,52,34,45,38,33,98,64,33,30.33,30.20,7,0,0,0.00
2013-5-27,62,50,39,50,43,34,97,80,39,30.25,29.99,6,0,0,0.28
2013-5-28,70,59,50,69,59,49,99,97,92,29.99,29.75,5,0,0,1.14
2013-5-29,81,71,62,69,65,60,97,83,54,29.94,29.68,11,1,15,0.04
2013-5-30,85,70,60,74,66,59,99,89,59,30.01,29.92,12,0,14,0.19
2013-5-31,80,72,66,71,67,64,97,86,68,29.95,29.80,12,1,15,0.08
2013-6-1,67,66,64,63,63,62,90,87,86,29.67,29.63,0,0,0,0.24
2013-6-2,69,63,52,64,57,44,93,80,65,29.93,29.59,12,2,15,0.01
2013-6-3,66,54,39,48,43,38,95,68,43,30.05,29.94,8,1,0,0.00
2013-6-4,71,58,44,54,46,35,96,68,43,30.17,30.05,5,0,0,0.00
2013-6-5,72,60,48,52,45,37,83,59,37,30.15,29.95,8,0,0,0.00
2013-6-6,66,59,54,56,50,44,86,72,64,29.97,29.82,4,0,0,0.00
2013-6-7,60,55,49,54,51,48,96,87,79,29.88,29.83,6,0,0,0.00
2013-6-8,72,61,55,58,54,51,90,77,52,30.03,29.87,5,0,0,0.00
2013-6-9,74,64,54,62,56,52,96,75,56,30.08,29.91,8,0,12,0.00
2013-6-10,71,64,59,68,62,53,98,93,64,29.92,29.68,5,0,0,0.93
2013-6-11,65,64,62,64,63,62,98,97,97,29.81,29.72,6,0,0,0.06
2013-6-13,76,71,63,61,59,57,86,67,53,29.87,29.75,5,0,0,0.33
2013-6-14,75,65,56,61,55,51,91,72,45,30.03,29.87,9,0,0,0.00
2013-6-15,77,65,53,64,58,51,98,81,57,30.04,29.87,9,0,0,0.00
2013-6-16,80,70,62,67,62,54,97,77,43,29.87,29.71,10,2,16,0.29
2013-6-17,85,69,56,65,59,54,95,73,40,29.88,29.78,8,0,0,0.00
2013-6-18,71,62,52,58,52,43,96,73,44,30.04,29.84,7,0,0,0.04
2013-6-19,76,60,43,56,48,42,96,68,41,30.14,30.03,5,0,0,0.00
2013-6-20,80,66,50,63,55,48,98,70,41,30.18,30.09,7,0,0,0.00
2013-6-21,84,70,55,69,61,53,97,75,50,30.17,30.00,8,0,0,0.00
2013-6-22,86,74,64,74,67,60,92,79,61,30.05,29.92,8,1,0,0.00
2013-6-23,88,78,67,73,69,66,97,76,51,30.00,29.90,8,1,0,0.00
2013-6-24,86,76,66,73,68,64,96,79,59,30.00,29.85,9,1,0,0.24
2013-6-25,80,70,66,74,67,64,97,90,75,29.92,29.77,10,1,12,0.21
2013-6-27,66,66,65,66,65,64,98,97,97,29.65,29.57,2,0,0,1.40
2013-6-28,78,67,63,68,64,60,98,93,71,29.59,29.47,7,0,0,0.39
2013-6-29,76,67,62,68,63,58,98,86,68,29.69,29.49,5,0,0,0.00
2013-6-30,78,68,59,64,60,48,95,76,56,29.91,29.69,5,0,0,0.00
2013-7-1,67,61,57,60,55,46,96,81,62,30.03,29.90,3,0,0,0.26
2013-7-2,75,64,56,66,60,54,97,86,69,30.03,29.98,5,0,0,0.01
2013-7-3,82,69,59,70,64,57,98,85,60,30.05,30.00,7,0,0,0.00
2013-7-4,78,72,67,68,66,63,97,81,62,30.07,30.02,10,0,0,0.00
2013-7-5,83,71,66,69,66,61,95,84,50,30.06,29.99,3,0,0,0.00
2013-7-6,83,73,66,72,68,65,98,86,64,30.05,29.93,4,0,0,0.06
2013-7-7,81,73,70,72,69,67,97,87,64,29.97,29.90,6,1,0,0.01
2013-7-8,83,73,68,76,70,66,98,91,79,29.97,29.90,9,0,14,0.46
2013-7-9,88,75,69,75,71,69,99,88,61,29.93,29.81,10,0,14,0.22
2013-7-10,86,77,62,76,70,59,98,82,59,29.89,29.70,11,1,14,0.15
2013-7-11,78,67,57,62,58,56,95,75,50,30.03,29.89,8,0,0,0.00
2013-7-12,81,67,53,65,59,52,98,79,47,30.12,30.02,5,0,0,0.00
2013-7-13,83,71,58,67,61,57,98,75,45,30.17,30.10,6,0,0,0.00
2013-7-14,87,75,63,75,68,62,99,82,58,30.21,30.16,7,0,0,0.00
2013-7-15,89,77,68,79,73,68,98,88,68,30.24,30.17,4,0,0,0.06
2013-7-16,90,81,73,80,75,72,99,85,63,30.25,30.17,7,0,0,0.01
2013-7-17,91,81,71,79,75,70,98,83,63,30.22,30.08,7,1,0,0.00
2013-7-18,91,80,71,78,74,70,97,81,56,30.10,29.89,9,0,13,0.00
2013-7-19,91,80,72,76,74,69,98,81,55,29.90,29.64,17,2,19,0.69
2013-7-20,84,74,67,71,66,60,97,78,47,29.87,29.66,6,1,17,0.03
2013-7-21,81,69,60,66,61,56,95,77,58,29.96,29.86,5,0,0,0.00
2013-7-22,81,76,67,70,67,63,93,73,58,29.82,29.71,5,0,0,0.02
2013-7-23,80,69,60,74,65,52,98,87,67,29.83,29.62,10,0,0,0.24
2013-7-24,72,63,54,58,53,50,88,72,52,30.01,29.83,6,0,0,0.00
2013-7-25,76,62,48,62,54,47,98,75,46,30.08,30.00,5,0,0,0.00
2013-7-26,78,67,56,62,58,54,97,77,53,30.07,29.86,6,0,0,0.00
2013-7-27,72,65,54,67,62,52,95,90,82,29.87,29.68,7,1,0,0.78
2013-7-28,65,56,50,58,53,48,97,89,71,29.92,29.78,7,1,0,0.20
2013-7-29,68,62,56,60,56,54,96,81,70,30.14,29.97,8,1,0,0.01
2013-7-30,76,63,50,63,57,49,99,81,52,30.20,30.08,5,0,0,0.01
2013-7-31,72,66,61,68,64,59,98,94,82,30.09,29.83,6,0,0,0.58
2013-8-1,77,66,61,65,61,55,97,85,53,29.87,29.82,10,1,15,0.02
2013-8-2,73,63,53,64,59,52,98,86,67,29.90,29.80,11,1,12,0.00
2013-8-3,76,68,58,63,59,54,98,76,51,30.01,29.85,7,1,0,0.00
2013-8-4,73,62,53,59,55,51,97,80,53,30.12,30.01,7,0,0,0.00
2013-8-5,71,62,54,60,55,51,93,80,53,30.09,29.93,7,0,0,0.00
2013-8-6,77,66,62,69,63,58,97,91,72,29.93,29.84,5,0,0,0.22
2013-8-7,82,70,62,73,66,61,99,88,67,29.86,29.75,12,1,12,0.04
2013-8-8,77,69,63,69,64,60,96,85,63,29.97,29.84,5,0,0,0.00
2013-8-9,79,68,56,63,59,54,97,76,51,29.96,29.89,6,0,0,0.00
2013-8-10,76,66,58,62,60,57,97,80,56,30.09,29.96,5,0,0,0.00
2013-8-11,76,67,59,65,60,56,94,79,57,30.08,29.99,7,0,0,0.00
2013-8-12,70,65,63,68,64,61,97,94,89,30.01,29.80,8,0,0,0.67
2013-8-13,67,60,51,64,54,47,98,80,54,30.01,29.78,12,1,14,0.01
2013-8-14,69,57,48,57,50,46,93,79,53,30.13,30.01,10,0,0,0.00
2013-8-15,72,59,47,59,52,45,98,79,50,30.14,30.06,7,0,0,0.00
2013-8-16,78,63,50,63,56,49,98,79,48,30.17,30.08,5,0,0,0.00
2013-8-17,78,65,51,62,56,50,98,78,43,30.23,30.15,6,0,0,0.00
2013-8-18,82,66,53,67,59,52,99,79,47,30.19,30.06,4,0,0,0.00
2013-8-19,80,68,55,65,58,49,99,76,36,30.08,29.99,7,0,0,0.00
2013-8-20,84,70,56,69,63,56,99,81,53,30.09,30.02,6,0,0,0.00
2013-8-21,84,72,61,73,66,60,98,83,63,30.08,29.94,6,0,0,0.00
2013-8-22,81,74,67,70,67,65,96,82,66,29.99,29.88,7,1,0,0.00
2013-8-23,81,68,55,66,58,52,98,75,40,30.17,29.99,7,0,0,0.00
2013-8-24,82,66,52,66,58,52,99,77,44,30.27,30.16,5,0,0,0.00
2013-8-25,85,70,54,68,61,53,98,77,49,30.26,30.10,0,0,0,0.00
2013-8-26,85,76,69,74,68,62,96,76,63,30.11,29.91,9,0,0,0.04
2013-8-27,82,74,70,76,72,68,98,93,80,29.93,29.77,10,0,12,0.60
2013-8-28,82,75,67,75,72,66,98,91,76,29.95,29.71,11,0,20,0.39
2013-8-29,87,73,63,75,68,62,99,85,53,30.03,29.94,3,0,0,0.01
2013-8-30,85,74,64,72,69,63,99,84,61,29.95,29.68,9,1,12,0.84
2013-8-31,79,72,66,72,69,64,98,89,70,29.79,29.69,4,0,0,0.01
2013-9-1,81,71,65,73,67,63,97,89,74,29.80,29.66,3,0,0,0.00
2013-9-2,73,66,57,70,62,53,98,85,65,29.87,29.67,11,2,18,0.56
2013-9-3,58,57,56,54,53,52,90,86,84,29.95,29.86,7,1,0,0.00
2013-9-13,60,53,42,50,45,40,94,75,58,30.11,30.01,8,1,12,0.00
2013-9-14,68,51,38,52,43,36,98,78,44,30.17,30.06,6,0,0,0.00
2013-9-15,62,53,46,56,50,45,98,91,71,30.10,30.03,5,0,0,0.10
2013-9-16,63,56,51,54,51,47,98,86,59,30.30,30.09,5,0,0,0.00
2013-9-18,74,64,58,58,56,54,93,76,49,30.03,30.01,4,0,0,0.00
2013-9-19,78,66,55,70,63,54,99,89,75,30.02,29.87,6,0,0,0.00
2013-9-20,79,70,67,71,68,66,97,92,74,29.88,29.67,13,1,13,0.13
2013-9-22,57,49,42,46,44,41,95,83,63,30.06,29.98,4,0,0,0.00
2013-9-23,61,48,37,50,42,36,98,84,59,30.18,30.06,5,0,0,0.00
2013-9-28,76,67,58,62,57,55,98,74,50,30.16,29.97,6,0,0,0.00
2013-9-29,62,59,56,61,57,54,98,93,82,29.99,29.92,5,0,0,0.10
2013-9-30,70,60,51,58,55,50,98,87,56,29.98,29.88,8,0,0,0.02
2013-10-1,71,59,47,65,56,47,99,92,75,29.98,29.89,10,1,13,0.00
2013-10-2,77,64,51,61,55,45,98,76,34,30.04,29.91,6,0,0,0.01
2013-10-3,77,63,50,68,60,49,99,89,73,30.03,29.88,9,0,0,0.00
2013-10-4,78,69,61,70,66,60,98,90,75,29.98,29.89,7,0,0,0.00
2013-10-5,72,67,63,69,66,62,99,96,89,29.99,29.81,2,0,0,0.25
2013-10-6,69,64,54,67,63,53,98,95,87,29.81,29.56,15,0,17,0.36
2013-10-7,58,51,44,53,47,42,98,88,68,30.08,29.63,10,2,18,0.02
2013-10-8,67,50,39,51,44,38,99,81,49,30.27,30.08,5,0,0,0.00
2013-10-9,70,52,39,57,46,38,99,82,50,30.30,30.19,5,0,0,0.00
2013-10-10,71,53,40,56,46,39,99,81,45,30.21,30.10,4,0,0,0.01
2013-10-11,72,52,37,55,45,37,99,82,43,30.13,30.05,5,0,0,0.00
2013-10-12,76,59,45,62,54,44,99,85,39,30.08,30.00,5,0,0,0.00
2013-10-13,66,57,44,59,48,40,98,74,39,30.31,30.05,9,1,0,0.00
2013-10-14,55,45,41,46,42,40,98,91,71,30.38,30.24,1,0,0,0.00
2013-10-15,63,52,39,60,50,38,99,92,78,30.25,29.80,7,0,0,0.12
2013-10-16,62,55,50,60,51,45,98,87,69,29.86,29.76,12,2,13,0.00
2013-10-17,52,50,45,50,48,44,96,93,88,29.86,29.71,9,1,0,0.31
2013-10-18,62,50,42,47,43,40,97,80,47,29.88,29.80,10,1,12,0.00
2013-10-19,48,44,40,43,41,37,96,89,76,29.86,29.70,11,1,13,0.23
2013-10-20,57,47,37,46,41,35,96,81,58,29.89,29.80,10,1,13,0.01
2013-10-21,54,50,40,49,43,35,91,79,68,29.82,29.75,9,2,18,0.03
2013-10-22,46,39,32,36,31,28,87,75,55,29.88,29.79,13,1,18,0.00
2013-10-23,47,38,30,35,31,25,97,78,45,29.91,29.79,10,1,13,0.00
2013-10-24,46,37,30,34,31,29,95,81,53,30.15,29.90,14,2,16,0.01
2013-10-25,46,37,30,35,31,29,95,80,58,30.31,30.08,13,1,14,0.00
2013-10-26,50,42,35,39,33,29,95,71,58,30.08,29.74,12,3,18,0.08
2013-10-27,51,39,30,38,33,29,96,82,55,30.05,29.96,8,0,0,0.00
2013-10-28,49,39,31,40,34,29,97,84,68,30.39,30.02,5,0,0,0.01
2013-10-29,48,41,36,37,34,31,88,75,58,30.42,30.23,6,0,0,0.00
2013-10-30,63,45,30,49,39,29,98,81,53,30.23,29.93,5,0,0,0.10
2013-10-31,61,58,51,60,57,50,98,97,95,29.95,29.11,14,1,14,1.25
2013-11-1,60,49,45,59,44,39,97,83,71,29.62,29.05,20,4,24,0.06
2013-11-2,45,42,32,44,40,30,97,94,87,30.08,29.61,7,0,0,0.23
2013-11-3,43,34,28,37,31,27,98,88,67,30.44,30.08,5,0,0,0.00
2013-11-4,48,39,30,37,32,28,97,76,49,30.47,30.29,8,1,0,0.01
2013-11-5,55,48,40,48,43,35,90,83,71,30.33,30.14,5,0,0,0.00
2013-11-6,55,51,41,52,47,39,95,86,68,30.14,29.74,20,2,20,0.23
2013-11-7,43,39,34,39,31,26,92,76,54,30.10,29.94,15,3,15,0.01
2013-11-8,43,34,28,32,28,25,95,79,52,30.26,30.09,12,1,14,0.00
2013-11-9,42,37,32,33,31,30,93,79,68,30.17,29.92,7,1,0,0.00
2013-11-10,47,40,32,35,31,28,87,72,58,30.24,30.10,15,3,17,0.00
2013-11-11,41,35,27,38,31,21,94,84,75,30.29,30.00,9,2,0,0.17
2013-11-12,33,27,22,23,20,17,85,73,58,30.53,30.29,17,2,17,0.05
2013-11-13,40,29,17,25,18,12,93,66,33,30.53,30.14,18,3,18,0.00
2013-11-14,51,38,29,30,23,18,70,54,41,30.14,29.95,15,2,15,0.00
2013-11-15,52,41,33,32,28,24,83,60,43,30.04,29.96,9,1,0,0.00
2013-11-16,56,43,29,53,40,27,97,89,82,30.09,29.77,8,1,13,0.00
2013-11-17,61,57,46,59,54,40,96,91,72,29.77,29.17,28,4,28,0.41
2013-11-18,46,39,34,42,31,24,84,73,68,30.10,29.40,24,7,27,0.00
2013-11-19,41,33,25,26,24,22,92,70,48,30.39,30.09,11,1,0,0.00
2013-11-20,45,33,22,34,26,21,97,79,47,30.43,30.24,8,0,0,0.00
2013-11-21,47,42,38,43,38,29,97,85,67,30.27,30.15,7,0,0,0.27
2013-11-22,44,38,27,44,36,24,98,92,79,30.33,30.10,12,1,16,0.06
2013-11-23,27,23,16,24,17,9,94,78,55,30.50,30.24,17,3,17,0.00
2013-11-24,23,17,13,15,11,8,90,76,57,30.59,30.41,13,2,13,0.00
2013-11-25,31,25,18,26,16,9,89,70,54,30.41,30.07,13,3,14,0.00
2013-11-26,33,30,28,28,27,24,93,87,82,30.09,29.92,12,1,12,0.00
2013-11-27,28,22,17,24,15,10,89,73,59,30.18,29.90,17,2,17,0.00
2013-11-28,27,21,14,21,16,10,91,82,70,30.42,30.18,5,0,0,0.00
2013-11-29,33,20,9,23,16,7,95,84,56,30.67,30.42,4,0,0,0.00
2013-11-30,44,32,23,30,26,21,93,77,57,30.56,30.08,9,1,0,0.01
2013-12-1,42,34,27,35,30,24,94,86,74,30.08,29.98,8,0,0,0.00
2013-12-2,38,31,23,30,26,20,93,82,55,29.98,29.87,5,0,0,0.00
2013-12-3,37,32,22,36,30,20,95,92,86,29.91,29.83,5,0,0,0.02
2013-12-4,54,45,37,51,43,36,98,93,87,29.89,29.59,7,1,0,0.01
2013-12-5,58,42,29,55,35,22,93,77,65,30.11,29.57,18,4,20,0.00
2013-12-6,29,25,18,22,18,12,77,73,68,30.39,30.08,10,2,15,0.00
2013-12-7,24,18,11,13,10,7,85,69,55,30.62,30.39,14,2,14,0.00
2013-12-8,28,18,10,26,14,7,93,82,65,30.59,29.99,11,0,0,0.00
2013-12-9,29,26,19,28,22,14,95,85,73,30.07,29.87,16,4,20,0.00
2013-12-10,21,17,9,18,10,3,90,73,49,30.18,29.94,19,4,19,0.00
2013-12-11,23,16,6,17,11,1,88,78,66,30.45,30.17,12,3,13,0.00
2013-12-12,20,12,0,14,6,-3,90,77,48,30.45,30.18,14,3,16,0.00
2013-12-13,26,23,20,20,18,13,85,81,74,30.29,30.14,10,1,12,0.00
2013-12-14,21,20,18,19,16,12,92,87,75,30.28,29.81,7,0,0,0.00
2013-12-15,24,18,11,22,15,7,93,85,73,30.02,29.79,15,3,16,0.00
2013-12-16,24,12,1,13,7,-2,92,79,56,30.18,30.01,6,0,0,0.11
2013-12-17,27,21,12,24,18,9,94,89,81,30.01,29.87,9,1,0,0.00
2013-12-18,30,25,21,25,21,15,95,84,69,30.09,29.88,12,2,12,0.00
2013-12-19,40,31,20,34,26,18,94,83,69,29.98,29.84,7,0,0,0.17
2013-12-20,36,34,33,35,33,31,97,97,93,29.91,29.71,3,0,0,0.50
2013-12-21,34,33,32,33,32,31,98,97,96,29.85,29.63,6,0,0,0.65
2013-12-22,36,33,30,34,32,30,97,96,91,29.94,29.52,10,1,0,0.34
2013-12-23,30,27,20,30,23,13,96,87,74,30.28,29.94,12,3,13,0.00
2013-12-24,20,12,3,13,8,0,90,81,67,30.54,30.27,12,2,12,0.00
2013-12-25,23,17,4,22,14,1,93,88,82,30.51,30.11,8,1,0,0.00
2013-12-26,26,24,23,24,20,15,94,86,71,30.27,30.02,18,2,18,0.00
2013-12-27,38,32,24,32,28,21,95,86,75,30.30,30.02,10,1,0,0.11
2013-12-28,48,40,30,36,33,28,91,76,61,30.09,29.86,8,2,13,0.01
2013-12-29,41,34,19,33,28,14,92,79,69,29.98,29.66,9,2,13,0.00
2013-12-30,19,17,14,14,9,5,81,70,63,30.25,29.98,6,2,0,0.00
2013-12-31,18,16,13,14,10,5,88,79,67,30.33,30.05,13,3,14,0.00
2014-1-1,15,12,10,12,8,4,89,82,69,30.40,30.24,4,0,0,0.00
2014-1-2,15,11,1,12,7,-4,89,84,75,30.28,30.09,9,1,12,0.00